Time;durP1;ratioP1;P1;durP2;ratioP2;P2;SDS_P1;SDS_P2;PMS_P1;PMS_P2;Temp;Humidity;BMP_temperature;BMP_pressure;BME280_temperature;BME280_humidity;BME280_pressure;Samples;Min_cycle;Max_cycle;Signal;HPM_P1;HPM_P2
2021/03/19 00:00:55;;;;;;;2.63;1.90;;;;;;;;;;4989183;28;20050;-62
2021/03/19 00:03:20;;;;;;;2.47;0.93;;;;;;;;;;4991398;28;20050;-62
2021/03/19 00:05:45;;;;;;;5.70;1.90;;;;;;;;;;4991688;28;20512;-62
2021/03/19 00:08:11;;;;;;;5.90;1.63;;;;;;;;;;4991431;28;20117;-62
2021/03/19 00:10:36;;;;;;;2.88;1.40;;;;;;;;;;4991427;28;20402;-62
2021/03/19 00:13:03;;;;;;;3.25;0.98;;;;;;;;;;4994676;28;20496;-62
2021/03/19 00:15:29;;;;;;;1.52;1.10;;;;;;;;;;4995544;28;20026;-62
2021/03/19 00:17:54;;;;;;;3.42;1.85;;;;;;;;;;4994696;28;20037;-62
2021/03/19 00:20:20;;;;;;;4.90;1.85;;;;;;;;;;4994978;28;20026;-62
2021/03/19 00:22:45;;;;;;;3.20;1.25;;;;;;;;;;4994979;28;20022;-62
2021/03/19 00:25:11;;;;;;;1.33;0.65;;;;;;;;;;4991101;28;20054;-62
2021/03/19 00:27:37;;;;;;;6.28;1.88;;;;;;;;;;4994820;28;20037;-62
2021/03/19 00:30:04;;;;;;;7.35;1.48;;;;;;;;;;4994689;28;20045;-62
2021/03/19 00:32:30;;;;;;;2.72;1.10;;;;;;;;;;4989747;28;20106;-62
2021/03/19 00:34:55;;;;;;;7.20;1.60;;;;;;;;;;4989126;28;20046;-62
2021/03/19 00:37:20;;;;;;;4.97;1.52;;;;;;;;;;4989817;28;20011;-62
2021/03/19 00:39:45;;;;;;;4.18;1.50;;;;;;;;;;4994892;28;20109;-62
2021/03/19 00:42:11;;;;;;;3.25;1.60;;;;;;;;;;4994854;28;20018;-62
2021/03/19 00:44:36;;;;;;;1.65;0.60;;;;;;;;;;4993384;28;20492;-62
2021/03/19 00:47:03;;;;;;;2.53;1.35;;;;;;;;;;4991064;28;20026;-62
2021/03/19 00:49:28;;;;;;;4.40;1.88;;;;;;;;;;4994768;28;20490;-62
2021/03/19 00:51:53;;;;;;;2.35;1.60;;;;;;;;;;4994752;28;20026;-62
2021/03/19 00:54:19;;;;;;;2.00;0.88;;;;;;;;;;4994573;28;20129;-62
2021/03/19 00:56:44;;;;;;;1.83;0.70;;;;;;;;;;4994514;28;20026;-62
2021/03/19 00:59:09;;;;;;;1.83;0.70;;;;;;;;;;4989868;28;20046;-62
2021/03/19 01:01:35;;;;;;;1.65;0.60;;;;;;;;;;4992265;28;20046;-62
2021/03/19 01:04:00;;;;;;;4.22;1.63;;;;;;;;;;4991030;28;20026;-62
2021/03/19 01:06:26;;;;;;;2.45;1.33;;;;;;;;;;4994606;28;20054;-62
2021/03/19 01:08:51;;;;;;;3.13;1.35;;;;;;;;;;4994339;28;20065;-62
2021/03/19 01:11:17;;;;;;;4.45;0.88;;;;;;;;;;4994766;28;20030;-62
2021/03/19 01:13:42;;;;;;;3.20;0.95;;;;;;;;;;4994006;28;20049;-62
2021/03/19 01:16:07;;;;;;;3.33;1.45;;;;;;;;;;4994448;28;20453;-62
2021/03/19 01:18:33;;;;;;;5.28;1.35;;;;;;;;;;4994243;28;20049;-59
2021/03/19 01:20:58;;;;;;;2.67;1.02;;;;;;;;;;4994043;28;20474;-60
2021/03/19 01:23:23;;;;;;;4.80;1.02;;;;;;;;;;4990412;28;20146;-59
2021/03/19 01:25:49;;;;;;;7.72;1.30;;;;;;;;;;4992929;28;20096;-59
2021/03/19 01:28:14;;;;;;;3.90;2.10;;;;;;;;;;4991505;28;20030;-60
2021/03/19 01:30:40;;;;;;;2.22;1.05;;;;;;;;;;4972558;28;20030;-59
2021/03/19 01:33:06;;;;;;;3.72;1.15;;;;;;;;;;4991163;28;20029;-59
2021/03/19 01:35:32;;;;;;;3.25;0.77;;;;;;;;;;4994152;28;20031;-59
2021/03/19 01:37:58;;;;;;;3.40;1.30;;;;;;;;;;4992528;28;20363;-59
2021/03/19 01:40:25;;;;;;;1.50;0.93;;;;;;;;;;4992215;28;20109;-59
2021/03/19 01:42:55;;;;;;;3.33;1.45;;;;;;;;;;4993867;28;20484;-59
2021/03/19 01:45:39;;;;;;;3.17;0.60;;;;;;;;;;4991293;28;20760;-59
2021/03/19 01:48:23;;;;;;;2.65;1.25;;;;;;;;;;4991448;28;20508;-59
2021/03/19 01:51:06;;;;;;;4.00;2.33;;;;;;;;;;4986880;28;20031;-59
2021/03/19 01:53:50;;;;;;;8.23;0.90;;;;;;;;;;4992306;28;20019;-60
2021/03/19 01:56:34;;;;;;;1.02;0.25;;;;;;;;;;4992428;28;20054;-59
2021/03/19 01:59:18;;;;;;;1.25;0.65;;;;;;;;;;4990399;28;20022;-59
2021/03/19 02:02:01;;;;;;;4.88;0.50;;;;;;;;;;4991342;28;20050;-59
2021/03/19 02:04:45;;;;;;;1.80;0.60;;;;;;;;;;4993560;28;20457;-59
2021/03/19 02:07:29;;;;;;;0.73;0.30;;;;;;;;;;4992848;28;20027;-62
2021/03/19 02:10:13;;;;;;;1.98;1.17;;;;;;;;;;4993306;28;20069;-62
2021/03/19 02:12:57;;;;;;;0.60;0.47;;;;;;;;;;4993058;28;20022;-65
2021/03/19 02:15:41;;;;;;;0.20;0.20;;;;;;;;;;4993420;28;20461;-64
2021/03/19 02:18:24;;;;;;;1.10;0.50;;;;;;;;;;4992870;28;20101;-65
2021/03/19 02:21:08;;;;;;;2.95;0.80;;;;;;;;;;4993431;28;20034;-62
2021/03/19 02:23:52;;;;;;;0.10;0.10;;;;;;;;;;4992906;28;20018;-62
2021/03/19 02:26:36;;;;;;;1.25;0.95;;;;;;;;;;4993320;28;20034;-62
2021/03/19 02:29:20;;;;;;;0.43;0.22;;;;;;;;;;4981915;28;20093;-62
2021/03/19 02:32:14;;;;;;;1.88;0.63;;;;;;;;;;4990751;28;20044;-62
2021/03/19 02:34:47;;;;;;;2.30;0.52;;;;;;;;;;4976110;28;20045;-62
2021/03/19 02:37:14;;;;;;;1.60;0.60;;;;;;;;;;4992747;28;20022;-62
2021/03/19 02:39:40;;;;;;;2.92;0.82;;;;;;;;;;4992460;28;20018;-62
2021/03/19 02:42:06;;;;;;;1.10;0.47;;;;;;;;;;4985992;28;20041;-62
2021/03/19 02:44:31;;;;;;;2.05;1.17;;;;;;;;;;4992443;28;20533;-62
2021/03/19 02:46:56;;;;;;;2.45;0.85;;;;;;;;;;4991833;28;20094;-62
2021/03/19 02:49:22;;;;;;;2.35;0.95;;;;;;;;;;4992134;28;20125;-64
2021/03/19 02:51:47;;;;;;;2.33;0.57;;;;;;;;;;4991778;28;20097;-63
2021/03/19 02:54:12;;;;;;;0.80;0.40;;;;;;;;;;4985792;28;20113;-64
2021/03/19 02:56:38;;;;;;;0.73;0.40;;;;;;;;;;4992403;28;20801;-63
2021/03/19 02:59:03;;;;;;;0.70;0.45;;;;;;;;;;4992326;28;20026;-63
2021/03/19 03:01:28;;;;;;;2.92;0.90;;;;;;;;;;4974406;28;20042;-64
2021/03/19 03:03:54;;;;;;;2.63;0.82;;;;;;;;;;4989141;28;20057;-63
2021/03/19 03:06:19;;;;;;;4.32;1.13;;;;;;;;;;4992173;28;20058;-64
2021/03/19 03:08:44;;;;;;;4.40;0.93;;;;;;;;;;4990533;28;20045;-64
2021/03/19 03:11:10;;;;;;;2.13;0.60;;;;;;;;;;4991755;28;20030;-64
2021/03/19 03:13:35;;;;;;;5.22;1.33;;;;;;;;;;4991724;28;20078;-64
2021/03/19 03:16:01;;;;;;;3.10;1.00;;;;;;;;;;4992538;28;20545;-64
2021/03/19 03:18:26;;;;;;;2.70;0.50;;;;;;;;;;4991803;28;20023;-64
2021/03/19 03:20:54;;;;;;;0.60;0.40;;;;;;;;;;4992189;28;20040;-64
2021/03/19 03:23:21;;;;;;;0.68;0.43;;;;;;;;;;4991887;28;20025;-63
2021/03/19 03:25:46;;;;;;;1.55;0.35;;;;;;;;;;4989641;28;20038;-64
2021/03/19 03:28:12;;;;;;;3.33;0.85;;;;;;;;;;4991830;28;20026;-64
2021/03/19 03:30:57;;;;;;;2.25;0.77;;;;;;;;;;4991967;28;20037;-64
2021/03/19 03:33:23;;;;;;;1.23;0.85;;;;;;;;;;4989909;28;20610;-64
2021/03/19 03:35:49;;;;;;;3.25;1.25;;;;;;;;;;4992132;28;20034;-64
2021/03/19 03:38:17;;;;;;;2.35;1.05;;;;;;;;;;4991742;28;20452;-64
2021/03/19 03:40:46;;;;;;;2.17;1.13;;;;;;;;;;4991940;28;20078;-64
2021/03/19 03:43:12;;;;;;;1.02;0.47;;;;;;;;;;4991634;28;20552;-64
2021/03/19 03:45:38;;;;;;;1.38;0.57;;;;;;;;;;4991808;28;20080;-64
2021/03/19 03:48:03;;;;;;;2.70;1.20;;;;;;;;;;4991517;28;20097;-63
2021/03/19 03:50:29;;;;;;;1.48;0.93;;;;;;;;;;4991533;28;20018;-64
2021/03/19 03:52:55;;;;;;;3.03;1.23;;;;;;;;;;4991835;28;20523;-64
2021/03/19 03:55:20;;;;;;;3.30;1.75;;;;;;;;;;4991858;28;20034;-63
2021/03/19 03:57:45;;;;;;;3.55;0.95;;;;;;;;;;4991392;28;20021;-64
2021/03/19 04:00:12;;;;;;;2.28;1.13;;;;;;;;;;4991349;28;20050;-64
2021/03/19 04:02:37;;;;;;;2.45;0.70;;;;;;;;;;4990366;28;20366;-64
2021/03/19 04:05:04;;;;;;;2.03;1.08;;;;;;;;;;4990212;28;20113;-64
2021/03/19 04:07:29;;;;;;;3.47;1.05;;;;;;;;;;4991345;28;20021;-64
2021/03/19 04:09:54;;;;;;;2.25;0.70;;;;;;;;;;4991437;28;20030;-64
2021/03/19 04:12:20;;;;;;;7.88;0.63;;;;;;;;;;4991280;28;20084;-64
2021/03/19 04:14:45;;;;;;;2.58;1.13;;;;;;;;;;4990613;28;20022;-64
2021/03/19 04:17:23;;;;;;;2.53;1.33;;;;;;;;;;4991399;28;20089;-64
2021/03/19 04:19:48;;;;;;;3.55;1.38;;;;;;;;;;4991037;28;20030;-64
2021/03/19 04:22:14;;;;;;;2.42;1.58;;;;;;;;;;4985803;28;20019;-64
2021/03/19 04:24:39;;;;;;;2.83;1.08;;;;;;;;;;4991011;28;20369;-64
2021/03/19 04:27:04;;;;;;;5.97;1.52;;;;;;;;;;4988802;28;20034;-64
2021/03/19 04:29:30;;;;;;;2.30;1.40;;;;;;;;;;4989695;28;20084;-64
2021/03/19 04:31:55;;;;;;;2.25;0.50;;;;;;;;;;4991006;28;20023;-64
2021/03/19 04:34:20;;;;;;;3.55;1.30;;;;;;;;;;4985076;28;20381;-64
2021/03/19 04:36:47;;;;;;;1.77;0.70;;;;;;;;;;4984759;28;20011;-64
2021/03/19 04:39:18;;;;;;;1.75;0.52;;;;;;;;;;4990687;28;20026;-64
2021/03/19 04:41:48;;;;;;;1.80;1.10;;;;;;;;;;4990954;28;20023;-64
2021/03/19 04:44:14;;;;;;;5.05;1.60;;;;;;;;;;4990908;28;20042;-64
2021/03/19 04:46:39;;;;;;;3.70;0.63;;;;;;;;;;4989522;28;20106;-64
2021/03/19 04:49:05;;;;;;;1.35;0.88;;;;;;;;;;4990944;28;20018;-64
2021/03/19 04:51:30;;;;;;;10.57;0.95;;;;;;;;;;4990861;28;20048;-64
2021/03/19 04:53:57;;;;;;;3.00;1.38;;;;;;;;;;4990085;28;20080;-63
2021/03/19 04:56:23;;;;;;;5.50;1.15;;;;;;;;;;4987036;28;20182;-64
2021/03/19 04:58:49;;;;;;;4.35;1.30;;;;;;;;;;4990743;28;20135;-64
2021/03/19 05:01:14;;;;;;;3.22;1.95;;;;;;;;;;4994251;28;20377;-63
2021/03/19 05:03:40;;;;;;;3.28;1.70;;;;;;;;;;4991033;28;20106;-63
2021/03/19 05:06:05;;;;;;;3.17;1.00;;;;;;;;;;4990906;28;20045;-64
2021/03/19 05:08:31;;;;;;;4.25;0.60;;;;;;;;;;4993113;28;20353;-63
2021/03/19 05:10:57;;;;;;;8.50;1.70;;;;;;;;;;4991884;28;20042;-64
2021/03/19 05:13:22;;;;;;;1.30;1.00;;;;;;;;;;4993266;28;20035;-64
2021/03/19 05:15:47;;;;;;;1.65;0.77;;;;;;;;;;4994525;28;20030;-64
2021/03/19 05:18:13;;;;;;;2.10;1.02;;;;;;;;;;4994200;28;20026;-64
2021/03/19 05:20:38;;;;;;;1.65;0.60;;;;;;;;;;4994173;28;20026;-64
2021/03/19 05:23:14;;;;;;;2.40;1.02;;;;;;;;;;4994013;28;20022;-64
2021/03/19 05:25:40;;;;;;;6.75;3.25;;;;;;;;;;4994212;28;20030;-64
2021/03/19 05:28:05;;;;;;;1.63;1.20;;;;;;;;;;4994190;28;20403;-64
2021/03/19 05:30:30;;;;;;;3.10;0.80;;;;;;;;;;4994141;28;20026;-64
2021/03/19 05:32:55;;;;;;;9.55;2.03;;;;;;;;;;4992463;28;20470;-63
2021/03/19 05:35:22;;;;;;;2.33;0.77;;;;;;;;;;4993815;28;20081;-64
2021/03/19 05:37:49;;;;;;;1.17;0.68;;;;;;;;;;4993850;28;20498;-64
2021/03/19 05:40:22;;;;;;;3.15;1.52;;;;;;;;;;4976160;28;20080;-64
2021/03/19 05:42:47;;;;;;;11.45;1.63;;;;;;;;;;4993618;28;20377;-64
2021/03/19 05:45:21;;;;;;;3.22;0.85;;;;;;;;;;4993979;28;20035;-64
2021/03/19 05:47:46;;;;;;;3.53;1.38;;;;;;;;;;4993563;28;20030;-63
2021/03/19 05:50:35;;;;;;;3.50;2.47;;;;;;;;;;4993098;28;20508;-64
2021/03/19 05:53:06;;;;;;;2.70;1.80;;;;;;;;;;4993548;28;20038;-64
2021/03/19 05:55:35;;;;;;;10.48;2.80;;;;;;;;;;4990516;28;20681;-64
2021/03/19 05:58:00;;;;;;;1.40;0.95;;;;;;;;;;4990694;28;20026;-64
2021/03/19 06:00:27;;;;;;;11.27;2.67;;;;;;;;;;4992945;28;20057;-64
2021/03/19 06:02:52;;;;;;;5.55;1.73;;;;;;;;;;4992005;28;20500;-64
2021/03/19 06:05:23;;;;;;;2.50;1.83;;;;;;;;;;4993093;28;20026;-64
2021/03/19 06:07:52;;;;;;;1.50;0.68;;;;;;;;;;4993212;28;20034;-64
2021/03/19 06:10:27;;;;;;;1.27;0.88;;;;;;;;;;4992127;28;20038;-64
2021/03/19 06:12:55;;;;;;;4.95;1.02;;;;;;;;;;4993003;28;20027;-64
2021/03/19 06:15:31;;;;;;;4.93;1.58;;;;;;;;;;4993383;28;20203;-64
2021/03/19 06:17:59;;;;;;;1.23;0.95;;;;;;;;;;4990731;28;20019;-64
2021/03/19 06:20:25;;;;;;;1.52;0.88;;;;;;;;;;4993026;28;20018;-64
2021/03/19 06:22:54;;;;;;;3.28;0.65;;;;;;;;;;4989443;28;20026;-64
2021/03/19 06:25:28;;;;;;;2.65;1.02;;;;;;;;;;4987015;28;20045;-63
2021/03/19 06:27:54;;;;;;;2.40;1.08;;;;;;;;;;4992953;28;20121;-64
2021/03/19 06:30:24;;;;;;;3.80;1.25;;;;;;;;;;4988137;28;20173;-64
2021/03/19 06:33:02;;;;;;;12.88;10.10;;;;;;;;;;4990917;28;20034;-64
2021/03/19 06:35:34;;;;;;;11.07;1.55;;;;;;;;;;4989281;28;20042;-63
2021/03/19 06:38:18;;;;;;;0.82;0.40;;;;;;;;;;4992802;28;20492;-64
2021/03/19 06:40:43;;;;;;;2.92;1.00;;;;;;;;;;4992541;28;20038;-62
2021/03/19 06:43:12;;;;;;;0.63;0.30;;;;;;;;;;4992653;28;20081;-62
2021/03/19 06:45:37;;;;;;;1.42;0.50;;;;;;;;;;4992136;28;20058;-62
2021/03/19 06:48:03;;;;;;;3.60;1.10;;;;;;;;;;4992375;28;20080;-62
2021/03/19 06:50:31;;;;;;;2.30;0.80;;;;;;;;;;4992466;28;20034;-63
2021/03/19 06:53:12;;;;;;;16.42;2.45;;;;;;;;;;4992198;28;20061;-63
2021/03/19 06:56:00;;;;;;;2.92;0.55;;;;;;;;;;4992417;28;20073;-63
2021/03/19 06:58:52;;;;;;;1.10;0.52;;;;;;;;;;4991137;28;20066;-63
2021/03/19 07:01:23;;;;;;;6.03;1.35;;;;;;;;;;4965602;28;20050;-62
2021/03/19 07:03:48;;;;;;;;;;;;;;;;;;4972539;28;20036;-63
2021/03/19 07:06:34;;;;;;;1.90;0.55;;;;;;;;;;4980543;28;19921;-63
2021/03/19 07:09:08;;;;;;;1.75;0.50;;;;;;;;;;4982947;28;20097;-63
2021/03/19 07:11:36;;;;;;;0.60;0.47;;;;;;;;;;4986341;28;20275;-63
2021/03/19 07:14:13;;;;;;;13.75;1.75;;;;;;;;;;4981771;28;20089;-63
2021/03/19 07:16:44;;;;;;;1.48;0.65;;;;;;;;;;4988876;28;20026;-63
2021/03/19 07:19:10;;;;;;;1.05;0.40;;;;;;;;;;4986265;28;20033;-64
2021/03/19 07:21:35;;;;;;;1.17;0.40;;;;;;;;;;4986407;28;20877;-64
2021/03/19 07:24:10;;;;;;;1.60;0.80;;;;;;;;;;4967341;28;20045;-63
2021/03/19 07:26:38;;;;;;;1.45;0.73;;;;;;;;;;4987770;28;20034;-64
2021/03/19 07:29:22;;;;;;;1.50;0.40;;;;;;;;;;4988552;28;20240;-63
2021/03/19 07:32:03;;;;;;;2.97;1.25;;;;;;;;;;4984836;28;20033;-64
2021/03/19 07:34:49;;;;;;;0.73;0.50;;;;;;;;;;4986923;28;20046;-63
2021/03/19 07:37:14;;;;;;;2.30;0.75;;;;;;;;;;4984042;28;20264;-63
2021/03/19 07:39:53;;;;;;;5.00;1.70;;;;;;;;;;4985068;28;20033;-64
2021/03/19 07:42:21;;;;;;;1.98;0.63;;;;;;;;;;4982381;28;20154;-64
2021/03/19 07:45:05;;;;;;;3.00;0.93;;;;;;;;;;4985127;28;20026;-64
2021/03/19 07:47:48;;;;;;;0.70;0.68;;;;;;;;;;4984633;28;20034;-64
2021/03/19 07:50:32;;;;;;;2.70;0.60;;;;;;;;;;4977304;28;20401;-64
2021/03/19 07:53:01;;;;;;;4.03;1.42;;;;;;;;;;4984970;28;20101;-63
2021/03/19 07:55:32;;;;;;;2.85;1.10;;;;;;;;;;4988442;28;20030;-64
2021/03/19 07:57:58;;;;;;;4.35;0.60;;;;;;;;;;4986176;28;20038;-64
2021/03/19 08:00:34;;;;;;;6.80;0.95;;;;;;;;;;4987877;28;20062;-64
2021/03/19 08:03:06;;;;;;;0.85;0.57;;;;;;;;;;4986694;28;20022;-64
2021/03/19 08:05:40;;;;;;;3.53;0.88;;;;;;;;;;4982689;28;20060;-64
2021/03/19 08:08:17;;;;;;;13.48;1.35;;;;;;;;;;4970534;28;20026;-63
2021/03/19 08:11:18;;;;;;;0.32;0.32;;;;;;;;;;4988703;28;20059;-63
2021/03/19 08:13:49;;;;;;;2.67;0.90;;;;;;;;;;4923199;29;20106;-63
2021/03/19 08:16:26;;;;;;;22.02;4.05;;;;;;;;;;4971278;28;20058;-62
2021/03/19 08:19:01;;;;;;;14.38;2.80;;;;;;;;;;4983673;28;20031;-62
2021/03/19 08:21:29;;;;;;;3.25;0.93;;;;;;;;;;4980039;28;20754;-62
2021/03/19 08:24:06;;;;;;;3.17;1.55;;;;;;;;;;4985476;28;20030;-63
2021/03/19 08:26:41;;;;;;;3.95;0.75;;;;;;;;;;4982626;28;20110;-61
2021/03/19 08:29:21;;;;;;;0.93;0.40;;;;;;;;;;4984202;28;20030;-62
2021/03/19 08:31:55;;;;;;;1.95;1.27;;;;;;;;;;4985242;28;20027;-61
2021/03/19 08:34:41;;;;;;;3.47;1.80;;;;;;;;;;4989024;28;20035;-63
2021/03/19 08:37:17;;;;;;;4.35;0.95;;;;;;;;;;4990611;28;20029;-64
2021/03/19 08:39:44;;;;;;;1.65;0.82;;;;;;;;;;4987557;28;20457;-63
2021/03/19 08:42:19;;;;;;;1.75;0.52;;;;;;;;;;4987497;28;20381;-63
2021/03/19 08:44:45;;;;;;;1.17;0.63;;;;;;;;;;4973804;28;20488;-64
2021/03/19 08:47:42;;;;;;;1.27;0.65;;;;;;;;;;4975949;28;20074;-63
2021/03/19 08:50:13;;;;;;;5.78;2.97;;;;;;;;;;4927117;28;20450;-63
2021/03/19 08:53:00;;;;;;;12.60;4.68;;;;;;;;;;4976258;28;20085;-63
2021/03/19 08:55:26;;;;;;;3.63;1.60;;;;;;;;;;4973339;28;20773;-64
2021/03/19 08:57:55;;;;;;;5.10;1.88;;;;;;;;;;4975764;28;20046;-62
2021/03/19 09:00:21;;;;;;;2.38;1.25;;;;;;;;;;4971174;28;20051;-62
2021/03/19 09:03:00;;;;;;;2.22;0.70;;;;;;;;;;4975524;28;20027;-63
2021/03/19 09:05:27;;;;;;;3.25;1.02;;;;;;;;;;4973349;28;20385;-62
2021/03/19 09:08:11;;;;;;;0.40;0.20;;;;;;;;;;4976304;28;20034;-62
2021/03/19 09:10:36;;;;;;;0.57;0.38;;;;;;;;;;4975646;28;20060;-62
2021/03/19 09:13:08;;;;;;;2.47;1.73;;;;;;;;;;4975712;28;20071;-63
2021/03/19 09:15:33;;;;;;;;;;;;;;;;;;4975828;28;20178;-62
2021/03/19 09:18:00;;;;;;;3.83;2.92;;;;;;;;;;4975358;28;19993;-62
2021/03/19 09:20:38;;;;;;;8.18;2.38;;;;;;;;;;4976520;28;20425;-69
2021/03/19 09:23:06;;;;;;;2.45;1.27;;;;;;;;;;4973799;28;20026;-70
2021/03/19 09:25:38;;;;;;;4.22;2.15;;;;;;;;;;4974761;28;20037;-69
2021/03/19 09:28:18;;;;;;;12.45;1.58;;;;;;;;;;4973356;28;20457;-69
2021/03/19 09:30:49;;;;;;;4.55;2.08;;;;;;;;;;4974905;28;20054;-69
2021/03/19 09:33:33;;;;;;;3.55;1.42;;;;;;;;;;4975488;28;20037;-69
2021/03/19 09:35:58;;;;;;;4.00;1.98;;;;;;;;;;4986617;28;20765;-69
2021/03/19 09:38:23;;;;;;;8.85;5.43;;;;;;;;;;4971803;28;20026;-69
2021/03/19 09:40:49;;;;;;;5.75;3.90;;;;;;;;;;4975748;28;20022;-69
2021/03/19 09:43:32;;;;;;;3.35;1.73;;;;;;;;;;4975334;28;20026;-69
2021/03/19 09:46:03;;;;;;;1.10;0.40;;;;;;;;;;4983070;28;20146;-68
2021/03/19 09:48:31;;;;;;;2.88;0.85;;;;;;;;;;4984132;28;20027;-69
2021/03/19 09:51:02;;;;;;;2.97;0.98;;;;;;;;;;4986643;28;20022;-68
2021/03/19 09:53:30;;;;;;;2.40;1.20;;;;;;;;;;4986791;28;20050;-69
2021/03/19 09:55:57;;;;;;;2.03;1.20;;;;;;;;;;4982913;28;20358;-68
2021/03/19 09:58:42;;;;;;;2.15;1.17;;;;;;;;;;4986469;28;20389;-68
2021/03/19 10:01:26;;;;;;;2.28;1.42;;;;;;;;;;4986845;28;20046;-69
2021/03/19 10:03:54;;;;;;;3.72;2.47;;;;;;;;;;4984374;28;20033;-69
2021/03/19 10:06:25;;;;;;;5.65;3.42;;;;;;;;;;4979143;28;20034;-67
2021/03/19 10:08:50;;;;;;;4.47;2.83;;;;;;;;;;4967206;28;20433;-69
2021/03/19 10:11:17;;;;;;;4.85;2.50;;;;;;;;;;4984310;28;20069;-68
2021/03/19 10:13:43;;;;;;;4.45;1.90;;;;;;;;;;4977726;28;20359;-67
2021/03/19 10:16:19;;;;;;;2.85;1.35;;;;;;;;;;4980417;28;20078;-68
2021/03/19 10:18:44;;;;;;;5.00;3.30;;;;;;;;;;4988839;28;20026;-67
2021/03/19 10:21:20;;;;;;;8.18;2.67;;;;;;;;;;4990378;28;20030;-67
2021/03/19 10:23:52;;;;;;;5.55;3.17;;;;;;;;;;4983433;28;20030;-67
2021/03/19 10:26:18;;;;;;;6.47;3.33;;;;;;;;;;4985495;28;20038;-68
2021/03/19 10:28:46;;;;;;;4.57;2.83;;;;;;;;;;4989634;28;20053;-68
2021/03/19 10:31:14;;;;;;;2.72;2.00;;;;;;;;;;4987560;28;20038;-69
2021/03/19 10:33:40;;;;;;;6.05;2.10;;;;;;;;;;4980948;28;20027;-70
2021/03/19 10:36:15;;;;;;;3.92;1.42;;;;;;;;;;4989957;28;20027;-67
2021/03/19 10:38:43;;;;;;;2.85;1.83;;;;;;;;;;4986798;28;20076;-69
2021/03/19 10:41:26;;;;;;;3.95;1.58;;;;;;;;;;4990029;28;20022;-68
2021/03/19 10:44:11;;;;;;;3.13;2.33;;;;;;;;;;4989217;28;20072;-68
2021/03/19 10:46:42;;;;;;;4.78;2.13;;;;;;;;;;4988918;28;20129;-69
2021/03/19 10:49:16;;;;;;;2.70;2.08;;;;;;;;;;4986781;28;20510;-68
2021/03/19 10:51:41;;;;;;;4.97;3.28;;;;;;;;;;4983471;28;20076;-69
2021/03/19 10:54:27;;;;;;;16.10;14.55;;;;;;;;;;4987013;28;20763;-69
2021/03/19 10:57:11;;;;;;;5.03;3.47;;;;;;;;;;4984273;28;20150;-70
2021/03/19 10:59:37;;;;;;;7.40;6.72;;;;;;;;;;4986610;28;20030;-69
2021/03/19 11:02:11;;;;;;;3.72;2.38;;;;;;;;;;4985846;28;20133;-70
2021/03/19 11:04:37;;;;;;;4.93;4.10;;;;;;;;;;4984397;28;20034;-70
2021/03/19 11:07:26;;;;;;;7.75;6.63;;;;;;;;;;4982549;28;20026;-71
2021/03/19 11:10:09;;;;;;;12.77;5.03;;;;;;;;;;4972141;28;20117;-70
2021/03/19 11:12:37;;;;;;;6.43;4.13;;;;;;;;;;4985139;28;20073;-69
2021/03/19 11:15:05;;;;;;;8.23;3.67;;;;;;;;;;4987325;28;20779;-70
2021/03/19 11:17:31;;;;;;;4.80;4.15;;;;;;;;;;4983899;28;20482;-71
2021/03/19 11:19:57;;;;;;;5.38;3.22;;;;;;;;;;4988261;28;20105;-68
2021/03/19 11:22:23;;;;;;;5.88;2.70;;;;;;;;;;4983506;28;20522;-70
2021/03/19 11:24:48;;;;;;;3.75;2.63;;;;;;;;;;4986781;28;20026;-72
2021/03/19 11:27:20;;;;;;;5.85;4.90;;;;;;;;;;4988830;28;20045;-71
2021/03/19 11:29:45;;;;;;;;;;;;;;;;;;4985307;28;20021;-72
2021/03/19 11:32:10;;;;;;;3.78;3.33;;;;;;;;;;4983557;28;19962;-71
2021/03/19 11:34:38;;;;;;;4.70;2.45;;;;;;;;;;4986182;28;20057;-70
2021/03/19 11:37:03;;;;;;;5.80;3.28;;;;;;;;;;4988647;28;20030;-70
2021/03/19 11:39:36;;;;;;;5.15;2.80;;;;;;;;;;4980203;28;20030;-70
2021/03/19 11:42:10;;;;;;;4.85;2.78;;;;;;;;;;4986976;28;20113;-71
2021/03/19 11:44:36;;;;;;;3.53;2.45;;;;;;;;;;4985835;28;20188;-71
2021/03/19 11:47:20;;;;;;;2.30;1.73;;;;;;;;;;4988595;28;20109;-70
2021/03/19 11:49:46;;;;;;;2.25;1.52;;;;;;;;;;4984172;28;20034;-71
2021/03/19 11:52:13;;;;;;;2.97;1.27;;;;;;;;;;4986889;28;20031;-72
2021/03/19 11:54:38;;;;;;;1.77;0.93;;;;;;;;;;4988540;28;20026;-73
2021/03/19 11:57:04;;;;;;;8.57;1.90;;;;;;;;;;4980648;28;20113;-73
2021/03/19 11:59:29;;;;;;;1.73;1.35;;;;;;;;;;4985263;28;20057;-70
2021/03/19 12:01:56;;;;;;;1.52;0.95;;;;;;;;;;4987357;28;20452;-73
2021/03/19 12:04:21;;;;;;;2.67;1.75;;;;;;;;;;4983508;28;20061;-70
2021/03/19 12:06:47;;;;;;;5.30;4.20;;;;;;;;;;4981828;28;20526;-71
2021/03/19 12:09:12;;;;;;;6.15;3.35;;;;;;;;;;4989624;28;20026;-70
2021/03/19 12:11:40;;;;;;;4.22;2.65;;;;;;;;;;4991825;28;20081;-66
2021/03/19 12:14:08;;;;;;;3.42;1.95;;;;;;;;;;4990204;28;20057;-68
2021/03/19 12:16:34;;;;;;;1.05;0.65;;;;;;;;;;4985423;28;20052;-68
2021/03/19 12:18:59;;;;;;;1.70;1.00;;;;;;;;;;4974931;28;20567;-70
2021/03/19 12:21:25;;;;;;;11.82;4.13;;;;;;;;;;4989586;28;20027;-70
2021/03/19 12:23:50;;;;;;;3.60;2.42;;;;;;;;;;4985352;28;20504;-70
2021/03/19 12:26:16;;;;;;;3.70;1.77;;;;;;;;;;4990412;28;20041;-71
2021/03/19 12:28:42;;;;;;;4.82;2.50;;;;;;;;;;4991615;28;20038;-69
2021/03/19 12:31:08;;;;;;;6.10;3.58;;;;;;;;;;4991733;28;20802;-68
2021/03/19 12:33:35;;;;;;;5.05;2.25;;;;;;;;;;4991518;28;20069;-71
2021/03/19 12:36:01;;;;;;;6.32;3.00;;;;;;;;;;4988913;28;20133;-71
2021/03/19 12:38:27;;;;;;;3.17;1.50;;;;;;;;;;4988881;28;20767;-72
2021/03/19 12:40:55;;;;;;;2.38;1.73;;;;;;;;;;4989677;28;20034;-72
2021/03/19 12:43:20;;;;;;;5.80;3.42;;;;;;;;;;4991201;28;20069;-69
2021/03/19 12:45:45;;;;;;;3.33;2.63;;;;;;;;;;4989216;28;20500;-69
2021/03/19 12:48:11;;;;;;;7.53;6.78;;;;;;;;;;4988857;28;20080;-70
2021/03/19 12:50:36;;;;;;;5.07;4.10;;;;;;;;;;4991453;28;20057;-66
2021/03/19 12:53:02;;;;;;;4.93;3.85;;;;;;;;;;4991897;28;20041;-69
2021/03/19 12:55:28;;;;;;;3.45;2.75;;;;;;;;;;4990165;28;20738;-65
2021/03/19 12:57:53;;;;;;;1.73;0.65;;;;;;;;;;4979641;28;20104;-71
2021/03/19 13:00:20;;;;;;;2.00;1.40;;;;;;;;;;4983693;28;20049;-68
2021/03/19 13:02:46;;;;;;;8.90;8.00;;;;;;;;;;4988340;28;20080;-70
2021/03/19 13:05:12;;;;;;;7.20;4.05;;;;;;;;;;4987247;28;20416;-70
2021/03/19 13:07:37;;;;;;;15.98;14.32;;;;;;;;;;4985819;28;20038;-72
2021/03/19 13:10:03;;;;;;;6.15;3.55;;;;;;;;;;4988655;28;20026;-70
2021/03/19 13:12:28;;;;;;;11.00;7.85;;;;;;;;;;4988008;28;20030;-70
2021/03/19 13:14:54;;;;;;;5.78;4.70;;;;;;;;;;4986010;28;20086;-72
2021/03/19 13:17:19;;;;;;;1.92;0.80;;;;;;;;;;4988643;28;20022;-73
2021/03/19 13:19:44;;;;;;;1.23;0.75;;;;;;;;;;4984984;28;20026;-69
2021/03/19 13:22:09;;;;;;;251.85;180.13;;;;;;;;;;4985484;28;20033;-68
2021/03/19 13:24:35;;;;;;;170.88;115.85;;;;;;;;;;4988529;28;20034;-67
2021/03/19 13:27:00;;;;;;;30.08;21.45;;;;;;;;;;4990838;28;20045;-69
2021/03/19 13:29:26;;;;;;;1431.30;825.22;;;;;;;;;;4989215;28;20066;-67
2021/03/19 13:31:51;;;;;;;77.53;62.53;;;;;;;;;;4979990;28;20034;-68
2021/03/19 13:34:16;;;;;;;6.65;4.15;;;;;;;;;;4969566;28;20117;-66
2021/03/19 13:36:42;;;;;;;8.57;5.50;;;;;;;;;;4981766;28;20035;-69
2021/03/19 13:39:08;;;;;;;9.55;3.75;;;;;;;;;;4990345;28;20047;-68
2021/03/19 13:41:36;;;;;;;7.80;3.63;;;;;;;;;;4990216;28;20069;-71
2021/03/19 13:44:03;;;;;;;4.50;3.20;;;;;;;;;;4985378;28;20429;-70
2021/03/19 13:46:28;;;;;;;6.55;3.67;;;;;;;;;;4990236;28;20046;-71
2021/03/19 13:48:54;;;;;;;6.53;4.50;;;;;;;;;;4987626;28;20567;-68
2021/03/19 13:51:20;;;;;;;13.20;6.35;;;;;;;;;;4988453;28;20472;-70
2021/03/19 13:53:45;;;;;;;8.80;6.40;;;;;;;;;;4983041;28;20037;-69
2021/03/19 13:56:11;;;;;;;5.50;2.88;;;;;;;;;;4987167;28;20022;-69
2021/03/19 13:58:36;;;;;;;13.15;2.85;;;;;;;;;;4972580;28;20086;-68
2021/03/19 14:01:04;;;;;;;4.78;3.78;;;;;;;;;;4990372;28;20504;-68
2021/03/19 14:03:30;;;;;;;4.03;2.60;;;;;;;;;;4987927;28;20026;-68
2021/03/19 14:05:56;;;;;;;9.70;3.65;;;;;;;;;;4990433;28;20026;-65
2021/03/19 14:08:22;;;;;;;4.15;2.95;;;;;;;;;;4990593;28;20034;-68
2021/03/19 14:10:48;;;;;;;4.88;1.85;;;;;;;;;;4988426;28;20027;-66
2021/03/19 14:13:13;;;;;;;11.32;1.67;;;;;;;;;;4989704;28;20037;-67
2021/03/19 14:15:39;;;;;;;8.88;1.63;;;;;;;;;;4983641;28;20033;-71
2021/03/19 14:18:04;;;;;;;6.90;2.90;;;;;;;;;;4985624;28;20057;-70
2021/03/19 14:20:31;;;;;;;5.43;2.78;;;;;;;;;;4986891;28;20034;-70
2021/03/19 14:22:57;;;;;;;2.35;1.50;;;;;;;;;;4984309;28;20018;-70
2021/03/19 14:25:22;;;;;;;8.98;4.53;;;;;;;;;;4988044;28;20386;-69
2021/03/19 14:27:49;;;;;;;5.05;3.45;;;;;;;;;;4981492;28;20026;-71
2021/03/19 14:30:16;;;;;;;8.52;4.35;;;;;;;;;;4988142;28;20038;-71
2021/03/19 14:32:41;;;;;;;6.18;1.83;;;;;;;;;;4983471;28;20031;-72
2021/03/19 14:35:08;;;;;;;5.78;4.38;;;;;;;;;;4987256;28;20067;-71
2021/03/19 14:37:34;;;;;;;10.10;6.60;;;;;;;;;;4988972;28;20116;-69
2021/03/19 14:40:00;;;;;;;14.48;4.78;;;;;;;;;;4983872;28;20475;-71
2021/03/19 14:42:25;;;;;;;5.57;2.38;;;;;;;;;;4989511;28;20109;-70
2021/03/19 14:44:50;;;;;;;6.80;1.83;;;;;;;;;;4986156;28;20030;-72
2021/03/19 14:47:15;;;;;;;5.72;3.40;;;;;;;;;;4978670;28;20034;-75
2021/03/19 14:49:41;;;;;;;17.55;5.90;;;;;;;;;;4989002;28;20034;-75
2021/03/19 14:52:07;;;;;;;7.47;2.80;;;;;;;;;;4964271;28;20076;-77
2021/03/19 14:54:32;;;;;;;7.65;6.90;;;;;;;;;;4986334;28;20475;-75
2021/03/19 14:56:57;;;;;;;5.75;3.58;;;;;;;;;;4986918;28;20042;-78